createdAt,value
2018-02-14T00:00:41.090Z,95.64
2018-02-14T00:01:41.006Z,95.83
2018-02-14T00:02:40.920Z,96.20
2018-02-14T00:03:40.830Z,96.01
2018-02-14T00:04:40.750Z,96.11
2018-02-14T00:05:40.663Z,96.11
2018-02-14T00:06:40.568Z,96.49
2018-02-14T00:07:40.483Z,96.49
2018-02-14T00:08:40.411Z,96.11
2018-02-14T00:09:40.310Z,96.20
2018-02-14T00:10:40.228Z,96.30
2018-02-14T00:11:40.160Z,96.11
2018-02-14T00:12:40.090Z,95.64
2018-02-14T00:13:39.967Z,95.64
2018-02-14T00:14:39.887Z,95.07
2018-02-14T00:15:39.795Z,95.45
2018-02-14T00:16:39.713Z,94.89
2018-02-14T00:17:39.631Z,94.79
2018-02-14T00:18:39.529Z,94.60
2018-02-14T00:19:39.451Z,94.51
2018-02-14T00:20:39.358Z,94.79
2018-02-14T00:21:39.280Z,94.70
2018-02-14T00:22:39.209Z,94.60
2018-02-14T00:23:39.109Z,94.32
2018-02-14T00:24:39.033Z,94.79
2018-02-14T00:25:38.938Z,94.51
2018-02-14T00:26:38.855Z,94.60
2018-02-14T00:27:38.757Z,94.51
2018-02-14T00:28:38.684Z,94.98
2018-02-14T00:29:38.579Z,95.07
2018-02-14T00:30:38.513Z,95.36
2018-02-14T00:31:38.419Z,95.26
2018-02-14T00:32:38.336Z,94.98
2018-02-14T00:33:38.252Z,95.26
2018-02-14T00:34:38.157Z,94.98
2018-02-14T00:35:38.083Z,95.45
2018-02-14T00:36:37.985Z,95.54
2018-02-14T00:37:37.892Z,95.36
2018-02-14T00:38:37.814Z,95.83
2018-02-14T00:39:37.731Z,95.83
2018-02-14T00:40:37.637Z,96.49
2018-02-14T00:41:37.553Z,96.30
2018-02-14T00:42:37.459Z,96.01
2018-02-14T00:43:37.387Z,96.39
2018-02-14T00:44:37.294Z,96.11
2018-02-14T00:45:37.205Z,96.58
2018-02-14T00:46:37.141Z,96.68
2018-02-14T00:47:37.036Z,96.77
2018-02-14T00:48:36.951Z,96.68
2018-02-14T00:49:36.861Z,96.39
2018-02-14T00:50:36.786Z,96.77
2018-02-14T00:51:36.688Z,96.86
2018-02-14T00:52:36.595Z,97.15
2018-02-14T00:53:36.507Z,97.62
2018-02-14T00:54:36.436Z,97.15
2018-02-14T00:55:36.356Z,97.24
2018-02-14T00:56:36.265Z,97.34
2018-02-14T00:57:36.179Z,97.15
2018-02-14T00:58:36.081Z,97.15
2018-02-14T00:59:36.006Z,96.77
2018-02-14T01:00:35.909Z,96.96
2018-02-14T01:01:35.826Z,96.49
2018-02-14T01:02:35.741Z,96.58
2018-02-14T01:03:35.657Z,96.49
2018-02-14T01:04:35.564Z,96.01
2018-02-14T01:05:35.490Z,95.92
2018-02-14T01:06:35.408Z,96.30
2018-02-14T01:07:35.318Z,96.49
2018-02-14T01:08:35.234Z,96.96
2018-02-14T01:09:35.137Z,96.96
2018-02-14T01:10:35.054Z,96.68
2018-02-14T01:11:34.961Z,96.96
2018-02-14T01:12:34.894Z,96.49
2018-02-14T01:13:34.792Z,96.39
2018-02-14T01:14:34.703Z,96.86
2018-02-14T01:15:34.616Z,97.15
2018-02-14T01:16:34.534Z,96.49
2018-02-14T01:17:34.458Z,97.15
2018-02-14T01:18:34.363Z,96.68
2018-02-14T01:19:34.274Z,96.77
2018-02-14T01:20:34.190Z,96.58
2018-02-14T01:21:34.117Z,96.96
2018-02-14T01:22:34.012Z,96.86
2018-02-14T01:23:33.939Z,96.96
2018-02-14T01:24:33.835Z,96.49
2018-02-14T01:25:33.754Z,96.58
2018-02-14T01:26:33.669Z,96.39
2018-02-14T01:27:33.584Z,96.49
2018-02-14T01:28:33.518Z,96.77
2018-02-14T01:29:33.415Z,96.96
2018-02-14T01:30:33.335Z,96.58
2018-02-14T01:31:33.242Z,97.24
2018-02-14T01:32:33.154Z,97.34
2018-02-14T01:33:33.066Z,97.34
2018-02-14T01:34:32.995Z,97.15
2018-02-14T01:35:32.886Z,97.34
2018-02-14T01:36:32.803Z,97.43
2018-02-14T01:37:32.715Z,97.72
2018-02-14T01:38:32.628Z,97.34
2018-02-14T01:39:32.546Z,96.77
2018-02-14T01:40:32.463Z,96.86
2018-02-14T01:41:32.377Z,97.05
2018-02-14T01:42:32.295Z,96.77
2018-02-14T01:43:32.203Z,97.15
2018-02-14T01:44:32.114Z,96.96
2018-02-14T01:45:32.044Z,96.86
2018-02-14T01:46:31.941Z,96.96
2018-02-14T01:47:31.852Z,96.49
2018-02-14T01:48:31.772Z,96.96
2018-02-14T01:49:31.684Z,96.49
2018-02-14T01:50:31.590Z,96.58
2018-02-14T01:51:31.522Z,96.77
2018-02-14T01:52:31.418Z,96.96
2018-02-14T01:53:31.337Z,97.05
2018-02-14T01:54:31.259Z,96.86
2018-02-14T01:55:31.167Z,96.96
2018-02-14T01:56:31.087Z,97.15
2018-02-14T01:57:30.995Z,97.62
2018-02-14T01:58:30.915Z,97.62
2018-02-14T01:59:30.821Z,97.43
2018-02-14T02:00:30.729Z,97.72
2018-02-14T02:01:30.640Z,97.05
2018-02-14T02:02:30.558Z,97.34
2018-02-14T02:03:30.463Z,96.96
2018-02-14T02:04:30.381Z,96.96
2018-02-14T02:05:30.301Z,96.96
2018-02-14T02:06:30.213Z,96.96
2018-02-14T02:07:30.144Z,96.77
2018-02-14T02:08:30.041Z,96.96
2018-02-14T02:09:29.968Z,97.15
2018-02-14T02:10:29.875Z,97.62
2018-02-14T02:11:29.783Z,97.62
2018-02-14T02:12:29.694Z,96.86
2018-02-14T02:13:29.630Z,97.34
2018-02-14T02:14:29.515Z,97.72
2018-02-14T02:15:29.433Z,98.19
2018-02-14T02:16:29.351Z,98.47
2018-02-14T02:17:29.257Z,98.10
2018-02-14T02:18:29.176Z,97.91
2018-02-14T02:19:29.096Z,98.00
2018-02-14T02:20:28.998Z,98.10
2018-02-14T02:21:28.928Z,97.43
2018-02-14T02:22:28.842Z,97.53
2018-02-14T02:23:28.745Z,98.19
2018-02-14T02:24:28.654Z,98.00
2018-02-14T02:25:28.570Z,98.00
2018-02-14T02:26:28.495Z,97.91
2018-02-14T02:27:28.393Z,97.91
2018-02-14T02:28:28.310Z,98.28
2018-02-14T02:29:28.226Z,97.91
2018-02-14T02:30:28.143Z,98.10
2018-02-14T02:31:28.052Z,98.19
2018-02-14T02:32:27.959Z,98.19
2018-02-14T02:33:27.870Z,97.72
2018-02-14T02:34:27.798Z,98.00
2018-02-14T02:35:27.705Z,98.38
2018-02-14T02:36:27.621Z,98.57
2018-02-14T02:37:27.534Z,98.10
2018-02-14T02:38:27.442Z,98.10
2018-02-14T02:39:27.364Z,97.91
2018-02-14T02:40:27.270Z,98.00
2018-02-14T02:41:27.184Z,97.72
2018-02-14T02:42:27.109Z,98.19
2018-02-14T02:43:27.007Z,98.10
2018-02-14T02:44:26.927Z,97.91
2018-02-14T02:45:26.839Z,98.19
2018-02-14T02:46:26.749Z,98.19
2018-02-14T02:47:26.666Z,98.00
2018-02-14T02:48:26.571Z,98.00
2018-02-14T02:49:26.496Z,98.00
2018-02-14T02:50:26.402Z,98.19
2018-02-14T02:51:26.321Z,98.19
2018-02-14T02:52:26.247Z,98.00
2018-02-14T02:53:26.151Z,98.57
2018-02-14T02:54:26.057Z,98.10
2018-02-14T02:55:25.975Z,99.04
2018-02-14T02:56:25.896Z,98.57
2018-02-14T02:57:25.796Z,98.85
2018-02-14T02:58:25.713Z,98.47
2018-02-14T02:59:25.620Z,98.85
2018-02-14T03:00:25.543Z,98.85
2018-02-14T03:01:25.450Z,98.66
2018-02-14T03:02:25.364Z,98.66
2018-02-14T03:03:25.273Z,98.28
2018-02-14T03:04:25.195Z,98.66
2018-02-14T03:05:25.097Z,98.75
2018-02-14T03:06:25.043Z,98.75
2018-02-14T03:07:24.939Z,99.04
2018-02-14T03:08:24.853Z,98.85
2018-02-14T03:09:24.765Z,99.13
2018-02-14T03:10:24.672Z,98.94
2018-02-14T03:11:24.600Z,98.85
2018-02-14T03:12:24.495Z,99.04
2018-02-14T03:13:24.410Z,98.75
2018-02-14T03:14:24.326Z,98.75
2018-02-14T03:15:24.237Z,98.57
2018-02-14T03:16:24.153Z,98.75
2018-02-14T03:17:24.067Z,98.57
2018-02-14T03:18:23.975Z,99.04
2018-02-14T03:19:23.892Z,98.75
2018-02-14T03:20:23.807Z,98.75
2018-02-14T03:21:23.724Z,98.66
2018-02-14T03:22:23.628Z,98.66
2018-02-14T03:23:23.548Z,98.75
2018-02-14T03:24:23.457Z,99.37
2018-02-14T03:25:23.382Z,99.18
2018-02-14T03:26:23.287Z,99.04
2018-02-14T03:27:23.206Z,98.71
2018-02-14T03:28:23.124Z,98.66
2018-02-14T03:29:23.025Z,99.08
2018-02-14T03:30:22.959Z,99.41
2018-02-14T03:31:22.849Z,98.94
2018-02-14T03:32:22.765Z,98.94
2018-02-14T03:33:22.677Z,98.85
2018-02-14T03:34:22.586Z,98.94
2018-02-14T03:35:22.508Z,98.94
2018-02-14T03:36:22.426Z,98.52
2018-02-14T03:37:22.329Z,98.90
2018-02-14T03:38:22.253Z,98.80
2018-02-14T03:39:22.163Z,98.94
2018-02-14T03:40:22.073Z,99.41
2018-02-14T03:41:21.982Z,99.32
2018-02-14T03:42:21.901Z,98.66
2018-02-14T03:43:21.822Z,99.32
2018-02-14T03:44:21.727Z,99.22
2018-02-14T03:45:21.637Z,99.37
2018-02-14T03:46:21.557Z,99.37
2018-02-14T03:47:21.478Z,99.18
2018-02-14T03:48:21.381Z,99.37
2018-02-14T03:49:21.296Z,98.80
2018-02-14T03:50:21.203Z,99.18
2018-02-14T03:51:21.117Z,99.46
2018-02-14T03:52:21.035Z,99.18
2018-02-14T03:53:20.956Z,99.18
2018-02-14T03:54:20.856Z,98.99
2018-02-14T03:55:20.769Z,99.18
2018-02-14T03:56:20.688Z,98.99
2018-02-14T03:57:20.589Z,99.99
2018-02-14T03:58:20.508Z,99.74
2018-02-14T03:59:20.417Z,99.37
2018-02-14T04:00:20.353Z,99.84
2018-02-14T04:01:20.256Z,99.84
2018-02-14T04:02:20.161Z,99.99
2018-02-14T04:03:20.092Z,99.74
2018-02-14T04:04:19.983Z,99.99
2018-02-14T04:05:19.909Z,99.65
2018-02-14T04:06:19.822Z,99.37
2018-02-14T04:07:19.732Z,99.65
2018-02-14T04:08:19.655Z,99.65
2018-02-14T04:09:19.562Z,99.84
2018-02-14T04:10:19.466Z,99.93
2018-02-14T04:11:19.393Z,99.74
2018-02-14T04:12:19.296Z,99.74
2018-02-14T04:13:19.205Z,99.55
2018-02-14T04:14:19.131Z,99.74
2018-02-14T04:15:19.033Z,99.99
2018-02-14T04:16:18.944Z,99.99
2018-02-14T04:17:18.855Z,99.99
2018-02-14T04:18:18.766Z,99.99
2018-02-14T04:19:18.687Z,99.99
2018-02-14T04:20:18.593Z,99.99
2018-02-14T04:21:18.507Z,99.99
2018-02-14T04:22:18.423Z,99.93
2018-02-14T04:23:18.333Z,99.93
2018-02-14T04:24:18.260Z,99.99
2018-02-14T04:25:18.173Z,99.99
2018-02-14T04:26:18.081Z,99.99
2018-02-14T04:27:18.000Z,99.99
2018-02-14T04:28:17.908Z,99.99
2018-02-14T04:29:17.818Z,99.99
2018-02-14T04:30:17.738Z,99.99
2018-02-14T04:31:17.660Z,99.99
2018-02-14T04:32:17.561Z,99.99
2018-02-14T04:33:17.477Z,99.99
2018-02-14T04:34:17.382Z,99.99
2018-02-14T04:35:17.298Z,99.99
2018-02-14T04:36:17.206Z,99.99
2018-02-14T04:37:17.122Z,99.84
2018-02-14T04:38:17.034Z,99.55
2018-02-14T04:39:16.947Z,99.99
2018-02-14T04:40:16.867Z,99.99
2018-02-14T04:41:16.776Z,99.99
2018-02-14T04:42:16.687Z,99.55
2018-02-14T04:43:16.604Z,99.74
2018-02-14T04:44:16.507Z,99.99
2018-02-14T04:45:16.421Z,99.55
2018-02-14T04:46:16.337Z,99.37
2018-02-14T04:47:16.258Z,99.84
2018-02-14T04:48:16.164Z,99.65
2018-02-14T04:49:16.089Z,99.84
2018-02-14T04:50:15.994Z,99.99
2018-02-14T04:51:15.919Z,99.99
2018-02-14T04:52:15.822Z,99.99
2018-02-14T04:53:15.736Z,99.99
2018-02-14T04:54:15.662Z,99.99
2018-02-14T04:55:15.560Z,99.99
2018-02-14T04:56:15.480Z,99.99
2018-02-14T04:57:15.385Z,99.99
2018-02-14T04:58:15.302Z,99.99
2018-02-14T04:59:15.217Z,99.99
2018-02-14T05:00:15.122Z,99.99
2018-02-14T05:01:15.038Z,99.99
2018-02-14T05:02:14.953Z,99.99
2018-02-14T05:03:14.864Z,99.99
2018-02-14T05:04:14.786Z,99.99
2018-02-14T05:05:14.687Z,99.99
2018-02-14T05:06:14.595Z,99.99
2018-02-14T05:07:14.518Z,99.99
2018-02-14T05:08:14.434Z,99.99
2018-02-14T05:09:14.340Z,99.99
2018-02-14T05:10:14.255Z,99.99
2018-02-14T05:11:14.162Z,99.99
2018-02-14T05:12:14.079Z,99.99
2018-02-14T05:13:13.991Z,99.99
2018-02-14T05:14:13.911Z,99.99
2018-02-14T05:15:13.826Z,99.99
2018-02-14T05:16:13.740Z,99.99
2018-02-14T05:17:13.659Z,99.99
2018-02-14T05:18:13.564Z,99.99
2018-02-14T05:19:13.490Z,99.99
2018-02-14T05:20:13.442Z,99.99
2018-02-14T05:21:13.315Z,99.99
2018-02-14T05:22:13.212Z,99.99
2018-02-14T05:23:13.128Z,99.99
2018-02-14T05:24:13.041Z,99.99
2018-02-14T05:25:12.964Z,99.99
2018-02-14T05:26:12.881Z,99.99
2018-02-14T05:27:12.784Z,99.99
2018-02-14T05:28:12.688Z,99.99
2018-02-14T05:29:12.602Z,99.99
2018-02-14T05:30:12.511Z,99.99
2018-02-14T05:31:12.443Z,99.99
2018-02-14T05:32:12.338Z,99.99
2018-02-14T05:33:12.250Z,99.99
2018-02-14T05:34:12.171Z,99.99
2018-02-14T05:35:12.075Z,99.99
2018-02-14T05:36:11.994Z,99.99
2018-02-14T05:37:11.905Z,99.99
2018-02-14T05:38:11.828Z,99.99
2018-02-14T05:39:11.742Z,99.99
2018-02-14T05:40:11.640Z,99.99
2018-02-14T05:41:11.562Z,99.99
2018-02-14T05:42:11.482Z,99.99
2018-02-14T05:43:11.390Z,99.99
2018-02-14T05:44:11.307Z,99.99
2018-02-14T05:45:11.218Z,99.99
2018-02-14T05:46:11.131Z,99.99
2018-02-14T05:47:11.041Z,99.99
2018-02-14T05:48:10.962Z,99.99
2018-02-14T05:49:10.868Z,99.99
2018-02-14T05:50:10.779Z,99.99
2018-02-14T05:51:10.690Z,99.99
2018-02-14T05:52:10.619Z,99.99
2018-02-14T05:53:10.521Z,99.99
2018-02-14T05:54:10.429Z,99.99
2018-02-14T05:55:10.343Z,99.99
2018-02-14T05:56:10.263Z,99.99
2018-02-14T05:57:10.193Z,99.99
2018-02-14T05:58:10.085Z,99.99
2018-02-14T05:59:09.995Z,99.99
2018-02-14T06:00:09.912Z,99.99
2018-02-14T06:01:09.816Z,99.99
2018-02-14T06:02:09.733Z,99.99
2018-02-14T06:03:09.646Z,99.99
2018-02-14T06:04:09.572Z,99.99
2018-02-14T06:05:09.477Z,99.99
2018-02-14T06:06:09.394Z,99.99
2018-02-14T06:07:09.307Z,99.99
2018-02-14T06:08:09.214Z,99.99
2018-02-14T06:09:09.143Z,99.99
2018-02-14T06:10:09.044Z,99.99
2018-02-14T06:11:08.959Z,99.99
2018-02-14T06:12:08.871Z,99.99
2018-02-14T06:13:08.784Z,99.99
2018-02-14T06:14:08.693Z,99.99
2018-02-14T06:15:08.615Z,99.99
2018-02-14T06:16:08.517Z,99.99
2018-02-14T06:17:08.434Z,99.99
2018-02-14T06:18:08.348Z,99.99
2018-02-14T06:19:08.259Z,99.99
2018-02-14T06:20:08.176Z,99.99
2018-02-14T06:21:08.099Z,99.99
2018-02-14T06:22:07.991Z,99.99
2018-02-14T06:23:07.923Z,99.99
2018-02-14T06:24:07.825Z,99.99
2018-02-14T06:25:07.747Z,99.99
2018-02-14T06:26:07.649Z,99.99
2018-02-14T06:27:07.556Z,99.99
2018-02-14T06:28:07.471Z,99.99
2018-02-14T06:29:07.389Z,99.99
2018-02-14T06:30:07.292Z,99.99
2018-02-14T06:31:07.226Z,99.99
2018-02-14T06:32:07.129Z,99.99
2018-02-14T06:33:07.042Z,99.99
2018-02-14T06:34:06.961Z,99.99
2018-02-14T06:35:06.870Z,99.99
2018-02-14T06:36:06.787Z,99.99
2018-02-14T06:37:06.699Z,99.99
2018-02-14T06:38:06.608Z,99.99
2018-02-14T06:39:06.522Z,99.99
2018-02-14T06:40:06.431Z,99.99
2018-02-14T06:41:06.350Z,99.99
2018-02-14T06:42:06.260Z,99.99
2018-02-14T06:43:06.171Z,99.99
2018-02-14T06:44:06.104Z,99.99
2018-02-14T06:45:06.002Z,99.99
2018-02-14T06:46:05.910Z,99.99
2018-02-14T06:47:05.827Z,99.99
2018-02-14T06:48:05.735Z,99.99
2018-02-14T06:49:05.650Z,99.99
2018-02-14T06:50:05.564Z,99.99
2018-02-14T06:51:05.469Z,99.99
2018-02-14T06:52:05.390Z,99.99
2018-02-14T06:53:05.299Z,99.99
2018-02-14T06:54:05.218Z,99.99
2018-02-14T06:55:05.127Z,99.99
2018-02-14T06:56:05.056Z,99.99
2018-02-14T06:57:04.960Z,99.99
2018-02-14T06:58:04.879Z,99.99
2018-02-14T06:59:04.784Z,99.99
2018-02-14T07:00:04.699Z,99.99
2018-02-14T07:01:04.624Z,99.99
2018-02-14T07:02:04.521Z,99.99
2018-02-14T07:03:04.485Z,99.99
2018-02-14T07:04:04.348Z,99.99
2018-02-14T07:05:04.262Z,99.99
2018-02-14T07:06:04.176Z,99.99
2018-02-14T07:07:04.085Z,99.99
2018-02-14T07:08:03.999Z,99.99
2018-02-14T07:09:03.913Z,99.99
2018-02-14T07:10:03.828Z,99.99
2018-02-14T07:11:03.742Z,99.99
2018-02-14T07:12:03.651Z,99.99
2018-02-14T07:13:03.575Z,99.99
2018-02-14T07:14:03.485Z,99.99
2018-02-14T07:15:03.396Z,99.99
2018-02-14T07:16:03.303Z,99.99
2018-02-14T07:17:03.232Z,99.99
2018-02-14T07:18:03.150Z,99.99
2018-02-14T07:19:03.058Z,99.99
2018-02-14T07:20:02.976Z,99.99
2018-02-14T07:21:02.874Z,99.99
2018-02-14T07:22:02.791Z,99.99
2018-02-14T07:23:02.704Z,99.99
2018-02-14T07:24:02.629Z,99.98
2018-02-14T07:25:02.533Z,99.88
2018-02-14T07:26:02.438Z,99.79
2018-02-14T07:27:02.360Z,99.32
2018-02-14T07:28:02.261Z,98.66
2018-02-14T07:29:02.187Z,99.41
2018-02-14T07:30:02.090Z,98.85
2018-02-14T07:31:02.004Z,98.75
2018-02-14T07:32:01.930Z,98.33
2018-02-14T07:33:01.844Z,98.24
2018-02-14T07:34:01.757Z,97.48
2018-02-14T07:35:01.670Z,97.48
2018-02-14T07:36:01.579Z,97.39
2018-02-14T07:37:01.490Z,97.48
2018-02-14T07:38:01.426Z,97.01
2018-02-14T07:39:01.344Z,97.48
2018-02-14T07:40:01.256Z,97.67
2018-02-14T07:41:01.179Z,97.77
2018-02-14T07:42:01.090Z,97.20
2018-02-14T07:43:01.008Z,97.01
2018-02-14T07:44:00.881Z,97.01
2018-02-14T07:45:00.823Z,97.01
2018-02-14T07:46:00.773Z,96.54
2018-02-14T07:47:00.626Z,96.44
2018-02-14T07:48:00.542Z,96.73
2018-02-14T07:49:00.458Z,96.06
2018-02-14T07:50:00.376Z,96.35
2018-02-14T07:51:00.283Z,96.06
2018-02-14T07:52:00.191Z,95.78
2018-02-14T07:53:00.102Z,96.25
2018-02-14T07:54:00.042Z,96.06
2018-02-14T07:54:59.951Z,95.21
2018-02-14T07:55:59.859Z,95.40
2018-02-14T07:56:59.783Z,95.59
2018-02-14T07:57:59.682Z,95.87
2018-02-14T07:58:59.610Z,95.78
2018-02-14T07:59:59.502Z,95.21
2018-02-14T08:00:59.427Z,95.31
2018-02-14T08:01:59.336Z,94.65
2018-02-14T08:02:59.254Z,94.56
2018-02-14T08:03:59.187Z,93.99
2018-02-14T08:04:59.086Z,94.18
2018-02-14T08:05:59.054Z,94.03
2018-02-14T08:06:58.918Z,93.89
2018-02-14T08:07:58.847Z,93.99
2018-02-14T08:08:58.909Z,94.27
2018-02-14T08:09:58.644Z,94.08
2018-02-14T08:10:58.572Z,94.13
2018-02-14T08:11:58.489Z,93.84
2018-02-14T08:12:58.756Z,94.13
2018-02-14T08:13:58.309Z,93.56
2018-02-14T08:14:58.236Z,93.09
2018-02-14T08:15:58.294Z,93.18
2018-02-14T08:16:58.061Z,93.37
2018-02-14T08:17:57.961Z,93.56
2018-02-14T08:18:57.888Z,93.47
2018-02-14T08:19:57.782Z,92.43
2018-02-14T08:20:57.730Z,92.43
2018-02-14T08:21:57.629Z,91.39
2018-02-14T08:22:57.536Z,90.68
2018-02-14T08:23:57.460Z,89.83
2018-02-14T08:24:57.364Z,90.01
2018-02-14T08:25:57.288Z,89.07
2018-02-14T08:26:57.197Z,87.74
2018-02-14T08:27:57.152Z,86.80
2018-02-14T08:28:57.033Z,86.09
2018-02-14T08:29:56.937Z,84.20
2018-02-14T08:30:56.843Z,83.20
2018-02-14T08:31:56.759Z,82.82
2018-02-14T08:32:56.674Z,81.96
2018-02-14T08:33:56.594Z,82.31
2018-02-14T08:34:56.515Z,82.97
2018-02-14T08:35:56.432Z,82.53
2018-02-14T08:36:56.333Z,82.06
2018-02-14T08:37:56.262Z,81.87
2018-02-14T08:38:56.183Z,81.68
2018-02-14T08:39:56.089Z,81.59
2018-02-14T08:40:56.000Z,81.59
2018-02-14T08:41:55.911Z,81.77
2018-02-14T08:42:55.837Z,81.30
2018-02-14T08:43:55.811Z,80.64
2018-02-14T08:44:55.700Z,79.64
2018-02-14T08:45:55.663Z,78.88
2018-02-14T08:46:55.511Z,78.65
2018-02-14T08:47:55.418Z,78.85
2018-02-14T08:48:55.347Z,79.13
2018-02-14T08:49:55.509Z,79.41
2018-02-14T08:50:55.562Z,79.32
2018-02-14T08:51:55.109Z,79.60
2018-02-14T08:52:54.997Z,78.75
2018-02-14T08:53:54.934Z,79.22
2018-02-14T08:54:54.834Z,78.85
2018-02-14T08:55:54.752Z,78.94
2018-02-14T08:56:54.664Z,78.41
2018-02-14T08:57:54.586Z,77.84
2018-02-14T08:58:54.539Z,77.65
2018-02-14T08:59:54.413Z,77.08
2018-02-14T09:00:54.653Z,76.23
2018-02-14T09:01:54.318Z,76.32
2018-02-14T09:02:54.180Z,76.42
2018-02-14T09:03:54.087Z,76.80
2018-02-14T09:04:54.006Z,76.80
2018-02-14T09:05:53.914Z,77.08
2018-02-14T09:06:53.844Z,77.56
2018-02-14T09:07:53.750Z,77.56
2018-02-14T09:08:53.686Z,76.65
2018-02-14T09:09:53.616Z,75.79
2018-02-14T09:10:53.541Z,75.19
2018-02-14T09:11:53.461Z,75.38
2018-02-14T09:12:53.377Z,77.18
2018-02-14T09:13:53.249Z,77.65
2018-02-14T09:14:53.168Z,77.46
2018-02-14T09:15:53.090Z,77.27
2018-02-14T09:16:53.012Z,77.84
2018-02-14T09:17:52.931Z,78.13
2018-02-14T09:18:52.845Z,77.27
2018-02-14T09:19:52.765Z,78.13
2018-02-14T09:20:52.690Z,77.27
2018-02-14T09:21:52.585Z,77.56
2018-02-14T09:22:52.517Z,76.80
2018-02-14T09:23:52.447Z,76.80
2018-02-14T09:24:52.337Z,76.89
2018-02-14T09:25:52.271Z,77.46
2018-02-14T09:26:52.188Z,77.08
2018-02-14T09:27:52.093Z,77.46
2018-02-14T09:28:52.022Z,77.56
2018-02-14T09:29:51.926Z,77.46
2018-02-14T09:30:51.867Z,77.56
2018-02-14T09:31:51.762Z,76.89
2018-02-14T09:32:51.688Z,76.70
2018-02-14T09:33:51.668Z,76.23
2018-02-14T09:34:51.516Z,75.28
2018-02-14T09:35:51.446Z,76.08
2018-02-14T09:36:51.369Z,75.57
2018-02-14T09:37:51.266Z,76.42
2018-02-14T09:38:51.192Z,76.04
2018-02-14T09:39:51.116Z,76.04
2018-02-14T09:40:51.046Z,76.23
2018-02-14T09:41:50.946Z,76.89
2018-02-14T09:42:50.852Z,76.51
2018-02-14T09:43:50.781Z,77.08
2018-02-14T09:44:50.693Z,76.80
2018-02-14T09:45:50.620Z,76.99
2018-02-14T09:46:50.536Z,76.86
2018-02-14T09:47:50.442Z,76.70
2018-02-14T09:48:50.367Z,76.70
2018-02-14T09:49:50.295Z,76.51
2018-02-14T09:50:50.206Z,76.61
2018-02-14T09:51:50.118Z,76.89
2018-02-14T09:52:50.046Z,77.27
2018-02-14T09:53:49.940Z,76.89
2018-02-14T09:54:49.875Z,76.99
2018-02-14T09:55:49.782Z,76.23
2018-02-14T09:56:49.720Z,75.76
2018-02-14T09:57:49.621Z,75.57
2018-02-14T09:58:49.544Z,76.14
2018-02-14T09:59:49.460Z,77.27
2018-02-14T10:00:49.371Z,76.51
2018-02-14T10:01:49.292Z,76.42
2018-02-14T10:02:49.211Z,75.28
2018-02-14T10:03:49.124Z,75.66
2018-02-14T10:04:49.044Z,75.66
2018-02-14T10:05:49.005Z,75.38
2018-02-14T10:06:48.867Z,74.95
2018-02-14T10:07:48.797Z,74.66
2018-02-14T10:08:48.725Z,74.56
2018-02-14T10:09:48.619Z,75.13
2018-02-14T10:10:48.546Z,74.95
2018-02-14T10:11:48.444Z,74.75
2018-02-14T10:12:48.366Z,73.90
2018-02-14T10:13:48.284Z,74.47
2018-02-14T10:14:48.217Z,73.90
2018-02-14T10:15:48.125Z,73.71
2018-02-14T10:16:48.040Z,73.90
2018-02-14T10:17:47.957Z,73.80
2018-02-14T10:18:47.875Z,73.52
2018-02-14T10:19:47.793Z,73.80
2018-02-14T10:20:47.707Z,73.90
2018-02-14T10:21:47.624Z,73.33
2018-02-14T10:22:47.532Z,73.43
2018-02-14T10:23:47.472Z,74.05
2018-02-14T10:24:47.372Z,75.32
2018-02-14T10:25:47.292Z,74.75
2018-02-14T10:26:47.213Z,73.99
2018-02-14T10:27:47.119Z,73.52
2018-02-14T10:28:47.048Z,72.67
2018-02-14T10:29:46.963Z,72.86
2018-02-14T10:30:46.870Z,72.96
2018-02-14T10:31:46.799Z,72.29
2018-02-14T10:32:46.717Z,73.05
2018-02-14T10:33:46.622Z,72.96
2018-02-14T10:34:46.547Z,72.10
2018-02-14T10:35:46.566Z,72.57
2018-02-14T10:36:46.369Z,72.57
2018-02-14T10:37:46.302Z,72.67
2018-02-14T10:38:46.391Z,72.80
2018-02-14T10:39:46.135Z,72.89
2018-02-14T10:40:46.052Z,72.86
2018-02-14T10:41:45.964Z,72.71
2018-02-14T10:42:45.899Z,72.57
2018-02-14T10:43:45.798Z,72.42
2018-02-14T10:44:45.714Z,72.71
2018-02-14T10:45:45.702Z,73.08
2018-02-14T10:46:45.546Z,72.52
2018-02-14T10:47:45.485Z,72.10
2018-02-14T10:48:45.399Z,72.99
2018-02-14T10:49:45.313Z,72.29
2018-02-14T10:50:45.226Z,72.42
2018-02-14T10:51:45.148Z,72.14
2018-02-14T10:52:45.493Z,72.04
2018-02-14T10:53:45.016Z,71.47
2018-02-14T10:54:44.924Z,70.18
2018-02-14T10:55:44.864Z,69.04
2018-02-14T10:56:44.937Z,69.33
2018-02-14T10:57:44.651Z,68.85
2018-02-14T10:58:44.597Z,67.90
2018-02-14T10:59:44.520Z,67.94
2018-02-14T11:00:44.404Z,67.18
2018-02-14T11:01:44.347Z,65.95
2018-02-14T11:02:44.252Z,66.23
2018-02-14T11:03:44.170Z,66.01
2018-02-14T11:04:44.082Z,67.37
2018-02-14T11:05:44.001Z,66.36
2018-02-14T11:06:43.927Z,65.88
2018-02-14T11:07:43.847Z,64.56
2018-02-14T11:08:43.746Z,64.08
2018-02-14T11:09:43.683Z,63.70
2018-02-14T11:10:43.592Z,63.04
2018-02-14T11:11:43.529Z,62.94
2018-02-14T11:12:43.435Z,63.89
2018-02-14T11:13:43.352Z,63.51
2018-02-14T11:14:43.280Z,63.04
2018-02-14T11:15:43.203Z,63.32
2018-02-14T11:16:43.100Z,63.70
2018-02-14T11:17:43.028Z,63.79
2018-02-14T11:18:42.957Z,63.89
2018-02-14T11:19:42.867Z,64.30
2018-02-14T11:20:42.796Z,63.70
2018-02-14T11:21:42.870Z,63.26
2018-02-14T11:22:42.628Z,63.13
2018-02-14T11:23:42.538Z,63.42
2018-02-14T11:24:42.512Z,64.56
2018-02-14T11:25:42.409Z,65.19
2018-02-14T11:26:42.304Z,65.85
2018-02-14T11:27:42.271Z,65.37
2018-02-14T11:28:42.144Z,65.09
2018-02-14T11:29:42.058Z,66.33
2018-02-14T11:30:42.010Z,65.56
2018-02-14T11:31:41.893Z,64.46
2018-02-14T11:32:41.816Z,63.32
2018-02-14T11:33:42.125Z,62.69
2018-02-14T11:34:41.694Z,61.45
2018-02-14T11:35:41.592Z,61.17
2018-02-14T11:36:41.547Z,61.17
2018-02-14T11:37:41.547Z,60.69
2018-02-14T11:38:41.469Z,61.52
2018-02-14T11:39:41.613Z,62.43
2018-02-14T11:40:41.260Z,64.24
2018-02-14T11:41:41.105Z,64.87
2018-02-14T11:42:41.117Z,66.20
2018-02-14T11:43:40.990Z,65.95
2018-02-14T11:44:40.870Z,65.00
2018-02-14T11:45:41.076Z,64.71
2018-02-14T11:46:40.686Z,64.43
2018-02-14T11:47:40.602Z,63.67
2018-02-14T11:48:40.520Z,62.94
2018-02-14T11:49:40.434Z,61.33
2018-02-14T11:50:40.353Z,60.31
2018-02-14T11:51:40.286Z,60.35
2018-02-14T11:52:40.260Z,58.54
2018-02-14T11:53:40.129Z,58.35
2018-02-14T11:54:40.032Z,58.89
2018-02-14T11:55:39.952Z,59.62
2018-02-14T11:56:39.883Z,59.84
2018-02-14T11:57:39.798Z,59.01
2018-02-14T11:58:39.737Z,57.02
2018-02-14T11:59:39.637Z,55.88
2018-02-14T12:00:39.558Z,56.19
2018-02-14T12:01:39.479Z,55.78
2018-02-14T12:02:39.406Z,58.20
2018-02-14T12:03:39.320Z,60.35
2018-02-14T12:04:39.235Z,61.68
2018-02-14T12:05:39.157Z,62.78
2018-02-14T12:06:39.082Z,63.17
2018-02-14T12:07:39.010Z,63.70
2018-02-14T12:08:38.921Z,65.03
2018-02-14T12:09:38.830Z,66.45
2018-02-14T12:10:38.792Z,66.74
2018-02-14T12:11:38.686Z,66.89
2018-02-14T12:12:38.607Z,63.35
2018-02-14T12:13:38.523Z,59.77
2018-02-14T12:14:38.429Z,57.11
2018-02-14T12:15:38.357Z,55.40
2018-02-14T12:16:38.288Z,56.68
2018-02-14T12:17:38.203Z,59.40
2018-02-14T12:18:38.113Z,61.74
2018-02-14T12:19:38.036Z,63.64
2018-02-14T12:20:37.957Z,64.87
2018-02-14T12:21:37.892Z,64.52
2018-02-14T12:22:37.800Z,64.01
2018-02-14T12:23:37.707Z,65.06
2018-02-14T12:24:37.671Z,65.44
2018-02-14T12:25:37.561Z,65.25
2018-02-14T12:26:37.485Z,66.86
2018-02-14T12:27:37.385Z,66.16
2018-02-14T12:28:37.315Z,66.83
2018-02-14T12:29:37.232Z,66.54
2018-02-14T12:30:37.164Z,66.07
2018-02-14T12:31:37.057Z,66.83
2018-02-14T12:32:36.983Z,66.29
2018-02-14T12:33:36.904Z,62.94
2018-02-14T12:34:36.830Z,61.39
2018-02-14T12:35:36.735Z,62.12
2018-02-14T12:36:36.666Z,63.17
2018-02-14T12:37:36.582Z,63.64
2018-02-14T12:38:36.505Z,64.20
2018-02-14T12:39:36.411Z,64.30
2018-02-14T12:40:36.331Z,64.68
2018-02-14T12:41:36.261Z,63.13
2018-02-14T12:42:36.853Z,61.87
2018-02-14T12:43:36.152Z,60.73
2018-02-14T12:44:36.112Z,62.05
2018-02-14T12:45:35.946Z,62.82
2018-02-14T12:46:35.975Z,63.73
2018-02-14T12:47:35.864Z,63.64
2018-02-14T12:48:35.818Z,64.01
2018-02-14T12:49:35.629Z,64.97
2018-02-14T12:50:35.555Z,65.53
2018-02-14T12:51:35.441Z,63.89